KTRI/TRI METAR and TAF weather

Enter ICAO airport designator
Station Type Date Time Source
KTRI METAR 2019/08/25 19:53 UTC NOAA

KTRI 251953Z VRB03KT 10SM OVC047 24/16 A3010 RMK AO2 SLP170 T02440161


Station Type Date Time Source
KTRI Decoded METAR 2019/08/25 19:53 UTC NOAA

Station name not available
Aug 25, 2019 - 03:53 PM EDT / 2019.08.25 1953 UTC
Wind: Variable at 3 MPH (3 KT):0
Visibility: 10 mile(s):0
Sky conditions: overcast
Temperature: 75.9 F (24.4 C)
Dew Point: 61.0 F (16.1 C)
Relative Humidity: 59%
Pressure (altimeter): 30.1 in. Hg (1019 hPa)
ob: KTRI 251953Z VRB03KT 10SM OVC047 24/16 A3010 RMK AO2 SLP170 T02440161
cycle: 20

Station Type Date Time Source
KTRI TAF 2019/08/25 18:42 UTC NOAA

TAF KTRI 251739Z 2518/2618 VRB03KT P6SM BKN035
FM252000 10005KT P6SM BKN050
FM260600 00000KT P6SM OVC100
FM260900 09005KT P6SM OVC025
FM261500 10003KT P6SM OVC050

Example: see airport list